Time;durP1;ratioP1;P1;durP2;ratioP2;P2;SDS_P1;SDS_P2;PMS_P1;PMS_P2;Temp;Humidity;BMP_temperature;BMP_pressure;BME280_temperature;BME280_humidity;BME280_pressure;Samples;Min_cycle;Max_cycle;Signal;HPM_P1;HPM_P2
2023/08/10 00:02:11;;;;;;;16.60;4.95;;;;;;;;;;4986513;28;20027;-62
2023/08/10 00:04:37;;;;;;;16.13;5.70;;;;;;;;;;4984162;28;20039;-63
2023/08/10 00:07:03;;;;;;;16.10;4.78;;;;;;;;;;4986841;28;20045;-63
2023/08/10 00:09:29;;;;;;;14.73;4.65;;;;;;;;;;4986654;28;20037;-62
2023/08/10 00:11:55;;;;;;;15.50;4.35;;;;;;;;;;4986849;28;20027;-62
2023/08/10 00:14:21;;;;;;;15.90;4.38;;;;;;;;;;4985384;28;20035;-62
2023/08/10 00:16:47;;;;;;;15.98;4.70;;;;;;;;;;4985692;28;20031;-62
2023/08/10 00:19:13;;;;;;;16.77;4.90;;;;;;;;;;4986331;28;20080;-62
2023/08/10 00:21:39;;;;;;;18.88;5.47;;;;;;;;;;4985614;28;20102;-61
2023/08/10 00:24:06;;;;;;;18.75;6.13;;;;;;;;;;4985645;28;20051;-63
2023/08/10 00:26:32;;;;;;;20.17;5.70;;;;;;;;;;4985039;28;20034;-61
2023/08/10 00:28:59;;;;;;;21.50;5.55;;;;;;;;;;4985249;28;20026;-62
2023/08/10 00:31:25;;;;;;;18.35;5.72;;;;;;;;;;4986593;28;20022;-63
2023/08/10 00:33:50;;;;;;;20.17;5.30;;;;;;;;;;4985808;28;20031;-63
2023/08/10 00:36:16;;;;;;;18.70;5.50;;;;;;;;;;4985475;28;20023;-62
2023/08/10 00:38:43;;;;;;;17.80;5.18;;;;;;;;;;4984602;28;20030;-62
2023/08/10 00:41:09;;;;;;;20.45;5.22;;;;;;;;;;4984413;28;20054;-63
2023/08/10 00:43:35;;;;;;;15.35;5.35;;;;;;;;;;4981513;28;20065;-62
2023/08/10 00:46:02;;;;;;;17.75;5.32;;;;;;;;;;4982869;28;20027;-62
2023/08/10 00:48:28;;;;;;;17.08;4.68;;;;;;;;;;4981961;28;20038;-63
2023/08/10 00:50:54;;;;;;;15.65;5.10;;;;;;;;;;4980446;28;20038;-62
2023/08/10 00:53:20;;;;;;;18.33;5.72;;;;;;;;;;4982183;28;20061;-62
2023/08/10 00:55:51;;;;;;;15.48;5.47;;;;;;;;;;4980454;28;20526;-62
2023/08/10 00:58:17;;;;;;;14.65;4.40;;;;;;;;;;4980638;28;20445;-61
2023/08/10 01:00:43;;;;;;;17.73;4.88;;;;;;;;;;4981738;28;20015;-61
2023/08/10 01:03:09;;;;;;;17.02;4.93;;;;;;;;;;4981018;28;20072;-62
2023/08/10 01:05:46;;;;;;;16.55;4.60;;;;;;;;;;4982179;28;20027;-62
2023/08/10 01:08:14;;;;;;;16.33;4.70;;;;;;;;;;4980716;28;20110;-61
2023/08/10 01:11:04;;;;;;;14.82;4.57;;;;;;;;;;4982269;28;20049;-62
2023/08/10 01:13:43;;;;;;;19.35;5.65;;;;;;;;;;4986980;28;20087;-63
2023/08/10 01:16:10;;;;;;;17.40;5.15;;;;;;;;;;4982847;28;20080;-62
2023/08/10 01:18:36;;;;;;;16.85;4.93;;;;;;;;;;4982807;28;20078;-63
2023/08/10 01:21:04;;;;;;;15.80;4.82;;;;;;;;;;4983069;28;20073;-61
2023/08/10 01:23:35;;;;;;;14.15;4.65;;;;;;;;;;4982173;28;20027;-62
2023/08/10 01:26:02;;;;;;;15.48;4.63;;;;;;;;;;4979863;28;20076;-61
2023/08/10 01:28:28;;;;;;;15.13;4.68;;;;;;;;;;4977259;28;20130;-60
2023/08/10 01:30:54;;;;;;;15.68;4.53;;;;;;;;;;4977237;28;20398;-62
2023/08/10 01:33:20;;;;;;;13.75;4.55;;;;;;;;;;4978247;28;20109;-61
2023/08/10 01:35:46;;;;;;;15.02;4.20;;;;;;;;;;4977769;28;20058;-62
2023/08/10 01:38:13;;;;;;;17.70;4.28;;;;;;;;;;4978286;28;20019;-61
2023/08/10 01:40:39;;;;;;;16.63;5.20;;;;;;;;;;4978648;28;20056;-61
2023/08/10 01:43:05;;;;;;;16.17;4.40;;;;;;;;;;4978551;28;20051;-62
2023/08/10 01:45:31;;;;;;;13.88;4.15;;;;;;;;;;4978114;28;20059;-61
2023/08/10 01:47:57;;;;;;;14.68;4.60;;;;;;;;;;4979470;28;20078;-62
2023/08/10 01:50:25;;;;;;;18.17;4.97;;;;;;;;;;5023574;28;20548;-61
2023/08/10 01:52:52;;;;;;;18.05;4.85;;;;;;;;;;5083197;28;20020;-62
2023/08/10 01:55:19;;;;;;;17.02;4.72;;;;;;;;;;5082824;28;20033;-61
2023/08/10 01:57:46;;;;;;;15.88;5.05;;;;;;;;;;5084584;28;20016;-61
2023/08/10 02:00:12;;;;;;;16.45;4.60;;;;;;;;;;5083579;28;20035;-63
2023/08/10 02:02:38;;;;;;;16.92;4.97;;;;;;;;;;5083326;28;20031;-61
2023/08/10 02:05:05;;;;;;;17.38;4.80;;;;;;;;;;5080914;28;20032;-59
2023/08/10 02:07:31;;;;;;;17.33;5.50;;;;;;;;;;5078912;28;20074;-61
2023/08/10 02:09:57;;;;;;;16.30;4.57;;;;;;;;;;5078019;28;20017;-61
2023/08/10 02:12:23;;;;;;;13.93;4.70;;;;;;;;;;5079240;28;20044;-61
2023/08/10 02:14:49;;;;;;;17.70;5.20;;;;;;;;;;5081832;28;20032;-64
2023/08/10 02:17:16;;;;;;;16.15;4.90;;;;;;;;;;5082753;28;20021;-63
2023/08/10 02:19:42;;;;;;;15.80;4.95;;;;;;;;;;5083345;28;20483;-63
2023/08/10 02:22:08;;;;;;;13.32;4.20;;;;;;;;;;5021278;28;20098;-63
2023/08/10 02:24:34;;;;;;;16.35;4.70;;;;;;;;;;4978839;28;20348;-64
2023/08/10 02:27:00;;;;;;;16.75;4.75;;;;;;;;;;4980988;28;20026;-62
2023/08/10 02:29:26;;;;;;;16.60;4.55;;;;;;;;;;4980563;28;20027;-63
2023/08/10 02:31:52;;;;;;;16.73;4.80;;;;;;;;;;4981264;28;20029;-62
2023/08/10 02:34:18;;;;;;;14.38;4.72;;;;;;;;;;4980118;28;20102;-61
2023/08/10 02:36:44;;;;;;;17.35;5.28;;;;;;;;;;4981080;28;20031;-63
2023/08/10 02:39:10;;;;;;;16.02;5.05;;;;;;;;;;4981379;28;20067;-61
2023/08/10 02:41:36;;;;;;;17.20;5.57;;;;;;;;;;4981444;28;20039;-63
2023/08/10 02:44:03;;;;;;;14.00;4.75;;;;;;;;;;4981185;28;20035;-62
2023/08/10 02:46:29;;;;;;;18.67;5.03;;;;;;;;;;4979157;28;20031;-64
2023/08/10 02:48:55;;;;;;;16.63;4.57;;;;;;;;;;4979089;28;20023;-62
2023/08/10 02:51:21;;;;;;;20.50;5.18;;;;;;;;;;4981402;28;20027;-63
2023/08/10 02:53:47;;;;;;;16.67;5.90;;;;;;;;;;4979680;28;20125;-62
2023/08/10 02:56:13;;;;;;;18.80;5.25;;;;;;;;;;4981022;28;20031;-63
2023/08/10 02:58:39;;;;;;;15.93;4.95;;;;;;;;;;4981706;28;20038;-61
2023/08/10 03:01:08;;;;;;;18.48;5.07;;;;;;;;;;4981414;28;20030;-62
2023/08/10 03:03:34;;;;;;;16.48;5.57;;;;;;;;;;4980515;28;20096;-63
2023/08/10 03:06:00;;;;;;;16.35;5.07;;;;;;;;;;4980304;28;20031;-63
2023/08/10 03:08:26;;;;;;;18.10;4.80;;;;;;;;;;4981937;28;20026;-62
2023/08/10 03:10:52;;;;;;;16.27;4.80;;;;;;;;;;4980564;28;20031;-62
2023/08/10 03:13:18;;;;;;;17.30;5.57;;;;;;;;;;4980243;28;20045;-63
2023/08/10 03:15:44;;;;;;;16.02;5.10;;;;;;;;;;4980682;28;20030;-63
2023/08/10 03:18:10;;;;;;;16.90;4.53;;;;;;;;;;4980374;28;20044;-63
2023/08/10 03:20:36;;;;;;;17.50;5.45;;;;;;;;;;4979572;28;20045;-62
2023/08/10 03:23:02;;;;;;;14.80;5.15;;;;;;;;;;4981160;28;20077;-61
2023/08/10 03:25:29;;;;;;;17.63;5.32;;;;;;;;;;4978673;28;20031;-63
2023/08/10 03:27:55;;;;;;;16.33;5.75;;;;;;;;;;4980336;28;20030;-64
2023/08/10 03:30:21;;;;;;;16.45;5.32;;;;;;;;;;4980032;28;20027;-63
2023/08/10 03:32:47;;;;;;;17.65;4.95;;;;;;;;;;4980665;28;20050;-63
2023/08/10 03:35:14;;;;;;;17.05;4.93;;;;;;;;;;4978666;28;20026;-62
2023/08/10 03:37:40;;;;;;;16.75;5.22;;;;;;;;;;4980212;28;20063;-63
2023/08/10 03:40:07;;;;;;;18.42;5.68;;;;;;;;;;4971894;28;20095;-63
2023/08/10 03:42:33;;;;;;;17.48;5.38;;;;;;;;;;4978819;28;20031;-62
2023/08/10 03:45:00;;;;;;;15.85;5.05;;;;;;;;;;4979325;28;20057;-63
2023/08/10 03:47:26;;;;;;;19.25;5.88;;;;;;;;;;4980536;28;20088;-62
2023/08/10 03:49:52;;;;;;;16.40;5.28;;;;;;;;;;4979923;28;20023;-63
2023/08/10 03:52:18;;;;;;;16.50;5.13;;;;;;;;;;4980606;28;20037;-63
2023/08/10 03:54:43;;;;;;;15.18;5.57;;;;;;;;;;4980354;28;20083;-63
2023/08/10 03:57:09;;;;;;;15.68;4.95;;;;;;;;;;4980927;28;20039;-63
2023/08/10 03:59:36;;;;;;;15.77;5.15;;;;;;;;;;4980719;28;20031;-63
2023/08/10 04:02:01;;;;;;;16.10;5.75;;;;;;;;;;4980337;28;20466;-61
2023/08/10 04:04:27;;;;;;;19.02;6.28;;;;;;;;;;4978709;28;20086;-63
2023/08/10 04:06:53;;;;;;;16.10;5.18;;;;;;;;;;4980681;28;20058;-63
2023/08/10 04:09:19;;;;;;;16.10;4.95;;;;;;;;;;4980457;28;20054;-62
2023/08/10 04:11:45;;;;;;;15.68;5.20;;;;;;;;;;4980531;28;20078;-63
2023/08/10 04:14:11;;;;;;;15.93;5.07;;;;;;;;;;4979446;28;20113;-63
2023/08/10 04:16:37;;;;;;;16.58;5.55;;;;;;;;;;4980187;28;20058;-64
2023/08/10 04:19:03;;;;;;;17.15;5.43;;;;;;;;;;4983131;28;20479;-62
2023/08/10 04:21:29;;;;;;;15.32;4.90;;;;;;;;;;4983380;28;20141;-63
2023/08/10 04:23:55;;;;;;;16.67;5.28;;;;;;;;;;4982562;28;20165;-59
2023/08/10 04:26:21;;;;;;;17.15;5.50;;;;;;;;;;4982822;28;20027;-63
2023/08/10 04:28:47;;;;;;;18.60;5.70;;;;;;;;;;4982631;28;20042;-63
2023/08/10 04:31:14;;;;;;;15.32;5.18;;;;;;;;;;4982033;28;20084;-63
2023/08/10 04:33:40;;;;;;;17.70;5.85;;;;;;;;;;4977938;28;20027;-62
2023/08/10 04:36:07;;;;;;;25.92;6.72;;;;;;;;;;4978567;28;20023;-62
2023/08/10 04:38:34;;;;;;;15.40;5.35;;;;;;;;;;4981613;28;20046;-63
2023/08/10 04:41:00;;;;;;;18.65;5.68;;;;;;;;;;4979500;28;20015;-63
2023/08/10 04:43:26;;;;;;;17.48;5.50;;;;;;;;;;4977412;28;20096;-62
2023/08/10 04:45:52;;;;;;;16.20;6.65;;;;;;;;;;4979516;28;20128;-61
2023/08/10 04:48:18;;;;;;;15.73;5.13;;;;;;;;;;4979602;28;20037;-63
2023/08/10 04:50:44;;;;;;;15.90;4.85;;;;;;;;;;4979898;28;20090;-62
2023/08/10 04:53:10;;;;;;;14.57;5.15;;;;;;;;;;4979513;28;20034;-60
2023/08/10 04:55:36;;;;;;;17.67;5.03;;;;;;;;;;4978789;28;20031;-61
2023/08/10 04:58:02;;;;;;;15.73;5.70;;;;;;;;;;4979526;28;20030;-63
2023/08/10 05:00:28;;;;;;;21.00;5.35;;;;;;;;;;4978818;28;20057;-60
2023/08/10 05:02:54;;;;;;;17.40;5.20;;;;;;;;;;4979857;28;20027;-64
2023/08/10 05:05:20;;;;;;;17.15;5.13;;;;;;;;;;4979072;28;20118;-64
2023/08/10 05:07:46;;;;;;;17.00;5.15;;;;;;;;;;4979691;28;20033;-62
2023/08/10 05:10:13;;;;;;;17.20;5.40;;;;;;;;;;4977461;28;20019;-61
2023/08/10 05:12:39;;;;;;;15.00;5.40;;;;;;;;;;4978867;28;20043;-63
2023/08/10 05:15:06;;;;;;;17.50;5.13;;;;;;;;;;4978021;28;20038;-62
2023/08/10 05:17:33;;;;;;;16.90;5.13;;;;;;;;;;4979478;28;20034;-63
2023/08/10 05:19:59;;;;;;;16.92;5.65;;;;;;;;;;4978813;28;20105;-63
2023/08/10 05:22:25;;;;;;;17.63;5.85;;;;;;;;;;4978212;28;20026;-61
2023/08/10 05:24:51;;;;;;;18.60;5.32;;;;;;;;;;4979365;28;20031;-63
2023/08/10 05:27:17;;;;;;;16.92;5.88;;;;;;;;;;4978960;28;20088;-63
2023/08/10 05:29:43;;;;;;;16.48;5.32;;;;;;;;;;4977600;28;20031;-61
2023/08/10 05:32:09;;;;;;;17.48;5.70;;;;;;;;;;4979231;28;20121;-60
2023/08/10 05:34:35;;;;;;;16.73;5.90;;;;;;;;;;4978629;28;20034;-63
2023/08/10 05:37:01;;;;;;;19.42;6.18;;;;;;;;;;4978257;28;20039;-60
2023/08/10 05:39:27;;;;;;;17.48;5.60;;;;;;;;;;4979098;28;20031;-62
2023/08/10 05:41:53;;;;;;;19.67;6.05;;;;;;;;;;4978472;28;20030;-61
2023/08/10 05:44:19;;;;;;;17.35;5.30;;;;;;;;;;4982530;22;20138;-59
2023/08/10 05:46:45;;;;;;;16.48;5.40;;;;;;;;;;4950545;28;20057;-58
2023/08/10 05:49:11;;;;;;;15.05;5.45;;;;;;;;;;4951499;28;20020;-58
2023/08/10 05:51:37;;;;;;;17.48;5.28;;;;;;;;;;4951820;28;20365;-58
2023/08/10 05:54:04;;;;;;;16.70;5.35;;;;;;;;;;4951002;28;20042;-58
2023/08/10 05:56:30;;;;;;;17.05;5.20;;;;;;;;;;4951601;28;20110;-59
2023/08/10 05:58:56;;;;;;;14.55;5.28;;;;;;;;;;4951527;28;20136;-57
2023/08/10 06:01:22;;;;;;;22.00;6.22;;;;;;;;;;4951694;28;20023;-55
2023/08/10 06:03:49;;;;;;;14.88;5.28;;;;;;;;;;4950607;28;20031;-56
2023/08/10 06:06:14;;;;;;;16.13;5.68;;;;;;;;;;4950403;28;20108;-58
2023/08/10 06:08:41;;;;;;;16.30;5.30;;;;;;;;;;4951309;28;20023;-57
2023/08/10 06:11:07;;;;;;;16.65;5.03;;;;;;;;;;4950871;28;20027;-54
2023/08/10 06:13:34;;;;;;;18.55;5.65;;;;;;;;;;4951240;28;20062;-58
2023/08/10 06:16:01;;;;;;;15.48;5.28;;;;;;;;;;4950717;28;20027;-53
2023/08/10 06:18:27;;;;;;;14.45;5.18;;;;;;;;;;4950802;28;20569;-59
2023/08/10 06:20:53;;;;;;;15.25;5.25;;;;;;;;;;4951392;28;20114;-56
2023/08/10 06:23:19;;;;;;;16.70;6.13;;;;;;;;;;4951095;28;20035;-56
2023/08/10 06:25:47;;;;;;;16.42;5.82;;;;;;;;;;4951063;28;20035;-58
2023/08/10 06:28:13;;;;;;;19.37;5.50;;;;;;;;;;4950979;28;20042;-57
2023/08/10 06:30:40;;;;;;;18.45;6.30;;;;;;;;;;4951209;28;20057;-58
2023/08/10 06:33:07;;;;;;;22.98;6.30;;;;;;;;;;4971270;28;20029;-55
2023/08/10 06:35:35;;;;;;;17.25;6.07;;;;;;;;;;5051607;28;20362;-55
2023/08/10 06:38:04;;;;;;;16.03;5.83;;;;;;;;;;5051724;28;20345;-59
2023/08/10 06:40:31;;;;;;;20.33;6.40;;;;;;;;;;5049682;28;20073;-58
2023/08/10 06:42:57;;;;;;;18.83;6.45;;;;;;;;;;5050537;28;20021;-56
2023/08/10 06:45:23;;;;;;;16.15;5.97;;;;;;;;;;5051209;28;20059;-55
2023/08/10 06:47:49;;;;;;;18.55;7.22;;;;;;;;;;5051689;28;20071;-58
2023/08/10 06:50:16;;;;;;;17.15;5.88;;;;;;;;;;5050176;28;20021;-59
2023/08/10 06:52:42;;;;;;;16.15;5.82;;;;;;;;;;5051749;28;20047;-58
2023/08/10 06:55:08;;;;;;;16.58;5.82;;;;;;;;;;5050874;28;20580;-57
2023/08/10 06:57:36;;;;;;;15.23;5.60;;;;;;;;;;5051202;28;20052;-58
2023/08/10 07:00:09;;;;;;;14.93;6.03;;;;;;;;;;5051598;28;20402;-57
2023/08/10 07:02:35;;;;;;;16.10;5.80;;;;;;;;;;5051335;28;20031;-58
2023/08/10 07:05:01;;;;;;;16.48;5.60;;;;;;;;;;4957626;28;20182;-57
2023/08/10 07:07:27;;;;;;;17.05;5.53;;;;;;;;;;4950528;28;20446;-57
2023/08/10 07:09:53;;;;;;;17.67;5.95;;;;;;;;;;4950754;28;20385;-59
2023/08/10 07:12:19;;;;;;;19.88;5.90;;;;;;;;;;4950967;28;20038;-56
2023/08/10 07:14:45;;;;;;;16.88;5.50;;;;;;;;;;4948917;28;20480;-55
2023/08/10 07:17:12;;;;;;;18.38;6.03;;;;;;;;;;4950564;28;20138;-57
2023/08/10 07:19:38;;;;;;;15.18;5.55;;;;;;;;;;4950721;28;20202;-55
2023/08/10 07:22:04;;;;;;;14.35;5.50;;;;;;;;;;4950589;29;20042;-54
2023/08/10 07:24:31;;;;;;;16.40;5.82;;;;;;;;;;4950311;29;20035;-55
2023/08/10 07:26:57;;;;;;;17.70;6.00;;;;;;;;;;4950289;28;20022;-56
2023/08/10 07:29:23;;;;;;;17.88;5.80;;;;;;;;;;4950404;29;20088;-55
2023/08/10 07:31:50;;;;;;;19.27;6.00;;;;;;;;;;4950505;28;20070;-58
2023/08/10 07:34:17;;;;;;;15.57;6.30;;;;;;;;;;4950051;28;20031;-58
2023/08/10 07:36:43;;;;;;;17.17;7.22;;;;;;;;;;4950279;29;20031;-56
2023/08/10 07:39:09;;;;;;;14.90;6.68;;;;;;;;;;4949301;29;20452;-57
2023/08/10 07:41:35;;;;;;;15.10;6.65;;;;;;;;;;4950401;29;20047;-58
2023/08/10 07:44:01;;;;;;;17.95;6.55;;;;;;;;;;4948253;28;20050;-57
2023/08/10 07:46:27;;;;;;;15.20;6.80;;;;;;;;;;4950068;29;20031;-65
2023/08/10 07:48:53;;;;;;;19.30;8.07;;;;;;;;;;4948952;28;20031;-62
2023/08/10 07:51:19;;;;;;;15.60;7.22;;;;;;;;;;4951238;28;20118;-63
2023/08/10 07:53:45;;;;;;;17.92;6.90;;;;;;;;;;4952324;28;20443;-63
2023/08/10 07:56:11;;;;;;;17.15;7.20;;;;;;;;;;4953284;28;20027;-64
2023/08/10 07:58:37;;;;;;;16.75;7.38;;;;;;;;;;4953572;28;20468;-63
2023/08/10 08:01:06;;;;;;;16.58;7.28;;;;;;;;;;4953354;28;20114;-62
2023/08/10 08:03:32;;;;;;;19.05;6.70;;;;;;;;;;4953369;28;20482;-62
2023/08/10 08:05:58;;;;;;;17.23;7.00;;;;;;;;;;4951348;28;20038;-63
2023/08/10 08:08:24;;;;;;;16.95;7.03;;;;;;;;;;4953495;28;20019;-64
2023/08/10 08:10:51;;;;;;;15.07;7.18;;;;;;;;;;4951948;28;20123;-62
2023/08/10 08:13:17;;;;;;;14.35;6.88;;;;;;;;;;4953092;28;20027;-63
2023/08/10 08:15:43;;;;;;;18.98;7.22;;;;;;;;;;4952654;28;20029;-63
2023/08/10 08:18:28;;;;;;;14.73;6.97;;;;;;;;;;4953043;28;20062;-63
2023/08/10 08:20:54;;;;;;;17.88;7.63;;;;;;;;;;4952942;28;20102;-63
2023/08/10 08:23:20;;;;;;;15.10;7.32;;;;;;;;;;4952733;28;20111;-63
2023/08/10 08:25:46;;;;;;;14.68;7.35;;;;;;;;;;4952516;28;20238;-62
2023/08/10 08:28:12;;;;;;;15.27;7.25;;;;;;;;;;4952868;28;20102;-64
2023/08/10 08:30:38;;;;;;;14.55;6.55;;;;;;;;;;4953049;28;20055;-63
2023/08/10 08:33:04;;;;;;;15.10;6.90;;;;;;;;;;4950158;28;20019;-63
2023/08/10 08:35:30;;;;;;;17.30;7.03;;;;;;;;;;4948884;28;20058;-63
2023/08/10 08:37:56;;;;;;;16.80;7.78;;;;;;;;;;4951351;28;20043;-63
2023/08/10 08:40:22;;;;;;;15.25;8.13;;;;;;;;;;4952854;28;20111;-63
2023/08/10 08:42:48;;;;;;;17.58;8.50;;;;;;;;;;4951726;29;20054;-64
2023/08/10 08:45:15;;;;;;;15.52;7.72;;;;;;;;;;4952020;28;20027;-64
2023/08/10 08:47:43;;;;;;;15.93;7.78;;;;;;;;;;4950973;28;20066;-64
2023/08/10 08:50:10;;;;;;;18.73;7.68;;;;;;;;;;4952561;28;20122;-62
2023/08/10 08:52:37;;;;;;;18.92;7.82;;;;;;;;;;4952538;28;20458;-66
2023/08/10 08:55:03;;;;;;;16.08;7.35;;;;;;;;;;4952170;28;20073;-65
2023/08/10 08:57:29;;;;;;;17.10;8.55;;;;;;;;;;4952858;28;20027;-68
2023/08/10 08:59:55;;;;;;;16.60;8.25;;;;;;;;;;4952593;28;20026;-67
2023/08/10 09:02:21;;;;;;;17.77;8.13;;;;;;;;;;4952049;28;20391;-69
2023/08/10 09:04:47;;;;;;;18.00;8.38;;;;;;;;;;4950693;28;20169;-68
2023/08/10 09:07:13;;;;;;;16.13;8.27;;;;;;;;;;4952501;28;20019;-68
2023/08/10 09:09:39;;;;;;;19.50;9.93;;;;;;;;;;4951292;28;20361;-66
2023/08/10 09:12:24;;;;;;;18.25;9.10;;;;;;;;;;4953123;28;20034;-67
2023/08/10 09:15:07;;;;;;;16.05;9.23;;;;;;;;;;4951717;28;20027;-65
2023/08/10 09:17:34;;;;;;;15.40;8.40;;;;;;;;;;4952273;28;20348;-65
2023/08/10 09:20:00;;;;;;;15.90;8.15;;;;;;;;;;4952414;28;20035;-67
2023/08/10 09:22:27;;;;;;;16.52;8.20;;;;;;;;;;4951015;28;20118;-65
2023/08/10 09:24:53;;;;;;;14.60;7.55;;;;;;;;;;4951745;28;20031;-64
2023/08/10 09:27:19;;;;;;;16.20;8.98;;;;;;;;;;4951997;28;20027;-64
2023/08/10 09:29:46;;;;;;;17.77;8.40;;;;;;;;;;4950844;28;20027;-65
2023/08/10 09:32:17;;;;;;;15.95;8.20;;;;;;;;;;4950657;28;20031;-65
2023/08/10 09:34:46;;;;;;;17.50;8.80;;;;;;;;;;4951540;28;20027;-65
2023/08/10 09:37:13;;;;;;;17.05;9.02;;;;;;;;;;4951801;28;20055;-65
2023/08/10 09:39:39;;;;;;;18.33;8.27;;;;;;;;;;4950482;28;20106;-65
2023/08/10 09:42:05;;;;;;;15.77;8.40;;;;;;;;;;4943948;28;20077;-65
2023/08/10 09:44:47;;;;;;;15.48;8.95;;;;;;;;;;4950106;28;20042;-65
2023/08/10 09:47:14;;;;;;;16.52;8.48;;;;;;;;;;4950559;29;20114;-65
2023/08/10 09:49:46;;;;;;;16.95;8.80;;;;;;;;;;4952018;28;20031;-65
2023/08/10 09:52:12;;;;;;;18.90;9.00;;;;;;;;;;4951732;29;20027;-66
2023/08/10 09:54:39;;;;;;;16.60;8.52;;;;;;;;;;4951089;28;20052;-66
2023/08/10 09:57:05;;;;;;;17.65;8.30;;;;;;;;;;4951680;28;20023;-65
2023/08/10 09:59:32;;;;;;;17.10;9.15;;;;;;;;;;4951284;28;20027;-67
2023/08/10 10:01:59;;;;;;;17.95;9.23;;;;;;;;;;4951798;28;20031;-65
2023/08/10 10:04:28;;;;;;;15.10;8.70;;;;;;;;;;4951241;28;20115;-66
2023/08/10 10:06:55;;;;;;;16.60;8.70;;;;;;;;;;4951503;28;20484;-65
2023/08/10 10:09:21;;;;;;;16.15;8.07;;;;;;;;;;4950046;28;20027;-66
2023/08/10 10:11:48;;;;;;;15.43;8.05;;;;;;;;;;4950541;28;20093;-66
2023/08/10 10:14:14;;;;;;;16.40;8.50;;;;;;;;;;4948926;28;20023;-66
2023/08/10 10:16:40;;;;;;;17.00;8.80;;;;;;;;;;4951408;28;20024;-66
2023/08/10 10:19:06;;;;;;;18.30;8.90;;;;;;;;;;4951353;28;20038;-66
2023/08/10 10:21:32;;;;;;;17.05;9.15;;;;;;;;;;4951443;28;20024;-66
2023/08/10 10:24:04;;;;;;;16.52;8.63;;;;;;;;;;4951084;28;20371;-66
2023/08/10 10:26:30;;;;;;;15.18;8.75;;;;;;;;;;4951026;28;20035;-66
2023/08/10 10:29:16;;;;;;;17.60;8.50;;;;;;;;;;4951125;28;20023;-65
2023/08/10 10:31:42;;;;;;;18.25;8.52;;;;;;;;;;4951153;28;20057;-66
2023/08/10 10:34:13;;;;;;;16.35;8.65;;;;;;;;;;4968064;28;20113;-65
2023/08/10 10:36:40;;;;;;;15.32;9.00;;;;;;;;;;4970146;28;20031;-65
2023/08/10 10:39:07;;;;;;;16.75;8.27;;;;;;;;;;4970055;28;20030;-65
2023/08/10 10:41:36;;;;;;;16.27;8.48;;;;;;;;;;4969665;28;20511;-65
2023/08/10 10:44:05;;;;;;;15.82;9.10;;;;;;;;;;4968955;28;20456;-65
2023/08/10 10:46:31;;;;;;;16.77;8.80;;;;;;;;;;4969951;28;20027;-65
2023/08/10 10:48:57;;;;;;;18.27;8.88;;;;;;;;;;4970152;28;20088;-65
2023/08/10 10:51:23;;;;;;;17.10;9.02;;;;;;;;;;4969213;28;20015;-66
2023/08/10 10:53:53;;;;;;;17.30;8.85;;;;;;;;;;4969779;28;20042;-66
2023/08/10 10:56:19;;;;;;;15.88;8.75;;;;;;;;;;4969881;28;20026;-65
2023/08/10 10:58:47;;;;;;;17.17;9.07;;;;;;;;;;4970090;28;20019;-66
2023/08/10 11:01:13;;;;;;;16.88;8.80;;;;;;;;;;4970142;28;20045;-66
2023/08/10 11:03:42;;;;;;;15.15;9.00;;;;;;;;;;4969560;28;20035;-66
2023/08/10 11:06:15;;;;;;;16.58;9.23;;;;;;;;;;4962697;28;20023;-66
2023/08/10 11:08:41;;;;;;;16.08;9.20;;;;;;;;;;4950768;28;20027;-67
2023/08/10 11:11:07;;;;;;;16.73;9.85;;;;;;;;;;4950518;28;20495;-66
2023/08/10 11:13:33;;;;;;;18.05;9.48;;;;;;;;;;4950193;28;20053;-66
2023/08/10 11:15:59;;;;;;;17.45;9.88;;;;;;;;;;4950025;28;20027;-66
2023/08/10 11:18:26;;;;;;;17.30;9.68;;;;;;;;;;4948416;28;20028;-66
2023/08/10 11:20:52;;;;;;;19.23;10.90;;;;;;;;;;4949125;28;20031;-66
2023/08/10 11:23:18;;;;;;;15.88;10.07;;;;;;;;;;4950624;28;20023;-66
2023/08/10 11:25:49;;;;;;;16.67;10.38;;;;;;;;;;4949266;28;20088;-66
2023/08/10 11:28:16;;;;;;;17.10;11.30;;;;;;;;;;4950559;28;20030;-66
2023/08/10 11:30:43;;;;;;;18.92;10.73;;;;;;;;;;4950399;28;20162;-66
2023/08/10 11:33:10;;;;;;;18.75;10.52;;;;;;;;;;4949476;28;20438;-66
2023/08/10 11:35:36;;;;;;;16.80;11.32;;;;;;;;;;4949979;28;20037;-65
2023/08/10 11:38:02;;;;;;;17.95;11.70;;;;;;;;;;4948860;28;20209;-66
2023/08/10 11:40:28;;;;;;;17.85;11.15;;;;;;;;;;4948657;28;20032;-65
2023/08/10 11:43:10;;;;;;;18.63;11.70;;;;;;;;;;4942858;28;20031;-65
2023/08/10 11:45:36;;;;;;;18.98;11.68;;;;;;;;;;4947465;28;20043;-65
2023/08/10 11:48:06;;;;;;;19.15;11.80;;;;;;;;;;4946453;28;20023;-65
2023/08/10 11:50:32;;;;;;;17.33;11.93;;;;;;;;;;4949378;28;20019;-64
2023/08/10 11:53:09;;;;;;;16.63;11.32;;;;;;;;;;4949921;28;20031;-64
2023/08/10 11:55:35;;;;;;;16.13;11.10;;;;;;;;;;4949561;28;20399;-63
2023/08/10 11:58:02;;;;;;;16.77;11.68;;;;;;;;;;4949875;28;20028;-63
2023/08/10 12:00:30;;;;;;;19.25;12.25;;;;;;;;;;4949765;28;20031;-64
2023/08/10 12:02:56;;;;;;;;;;;;;;;;;;4949697;28;20028;-64
2023/08/10 12:05:36;;;;;;;17.67;12.30;;;;;;;;;;4949309;28;20378;-64
2023/08/10 12:08:06;;;;;;;17.25;12.40;;;;;;;;;;4949767;28;20028;-65
2023/08/10 12:10:36;;;;;;;19.00;12.50;;;;;;;;;;4949854;28;20020;-64
2023/08/10 12:13:02;;;;;;;16.75;12.50;;;;;;;;;;4948624;28;20032;-63
2023/08/10 12:15:30;;;;;;;17.83;12.13;;;;;;;;;;4947487;28;20118;-66
2023/08/10 12:17:56;;;;;;;17.48;12.25;;;;;;;;;;4949711;28;20510;-63
2023/08/10 12:20:22;;;;;;;17.25;12.30;;;;;;;;;;4949532;28;20031;-66
2023/08/10 12:22:48;;;;;;;16.73;12.35;;;;;;;;;;4948563;28;20042;-63
2023/08/10 12:25:14;;;;;;;17.02;11.77;;;;;;;;;;4949391;28;20031;-63
2023/08/10 12:27:40;;;;;;;16.75;11.70;;;;;;;;;;4949680;28;20456;-64
2023/08/10 12:30:08;;;;;;;15.88;11.18;;;;;;;;;;4949673;28;20035;-63
2023/08/10 12:32:34;;;;;;;18.98;12.00;;;;;;;;;;4949657;28;20019;-64
2023/08/10 12:35:01;;;;;;;16.38;11.50;;;;;;;;;;4949023;28;20031;-63
2023/08/10 12:37:27;;;;;;;17.52;11.98;;;;;;;;;;4949402;28;20035;-64
2023/08/10 12:39:54;;;;;;;16.15;11.85;;;;;;;;;;4952704;28;20031;-64
2023/08/10 12:42:20;;;;;;;15.68;11.52;;;;;;;;;;4952825;28;20039;-62
2023/08/10 12:44:46;;;;;;;16.25;11.60;;;;;;;;;;4952185;28;20102;-64
2023/08/10 12:47:12;;;;;;;21.05;12.73;;;;;;;;;;4952555;28;20035;-65
2023/08/10 12:49:38;;;;;;;19.80;12.70;;;;;;;;;;4952679;28;20027;-65
2023/08/10 12:52:04;;;;;;;20.10;13.00;;;;;;;;;;4951237;28;20030;-65
2023/08/10 12:54:30;;;;;;;17.55;13.00;;;;;;;;;;4952303;28;20035;-65
2023/08/10 12:56:56;;;;;;;17.65;12.20;;;;;;;;;;4952370;28;20074;-65
2023/08/10 12:59:22;;;;;;;19.63;12.05;;;;;;;;;;4952455;28;20061;-65
2023/08/10 13:01:51;;;;;;;18.55;12.05;;;;;;;;;;4952631;28;20203;-63
2023/08/10 13:04:17;;;;;;;16.00;11.77;;;;;;;;;;4951752;28;20430;-65
2023/08/10 13:06:43;;;;;;;16.77;12.20;;;;;;;;;;4952127;28;20038;-65
2023/08/10 13:09:09;;;;;;;19.67;12.55;;;;;;;;;;4952523;28;20030;-65
2023/08/10 13:11:36;;;;;;;18.83;12.30;;;;;;;;;;4952102;28;20020;-65
2023/08/10 13:14:02;;;;;;;18.10;12.27;;;;;;;;;;4952013;28;20431;-65
2023/08/10 13:16:28;;;;;;;17.42;12.57;;;;;;;;;;4952409;28;20039;-64
2023/08/10 13:18:54;;;;;;;16.83;12.40;;;;;;;;;;4952392;28;20062;-65
2023/08/10 13:21:20;;;;;;;19.33;12.90;;;;;;;;;;4952043;28;20441;-65
2023/08/10 13:23:46;;;;;;;17.15;12.85;;;;;;;;;;4609596;28;10001020;-65
2023/08/10 13:26:12;;;;;;;18.70;12.55;;;;;;;;;;4949807;28;20043;-65
2023/08/10 13:28:38;;;;;;;18.70;13.32;;;;;;;;;;5003318;28;20044;-65
2023/08/10 13:31:06;;;;;;;18.45;13.00;;;;;;;;;;4949968;28;20467;-65
2023/08/10 13:33:32;;;;;;;19.50;13.32;;;;;;;;;;4948944;28;20023;-65
2023/08/10 13:36:00;;;;;;;18.13;12.70;;;;;;;;;;4947985;28;20054;-64
2023/08/10 13:38:26;;;;;;;16.92;12.68;;;;;;;;;;4949245;28;20070;-65
2023/08/10 13:40:52;;;;;;;18.10;12.77;;;;;;;;;;4948700;28;20035;-65
2023/08/10 13:43:18;;;;;;;17.13;12.30;;;;;;;;;;4948463;28;20058;-63
2023/08/10 13:45:44;;;;;;;19.08;12.15;;;;;;;;;;4947515;28;20035;-65
2023/08/10 13:48:10;;;;;;;15.50;11.82;;;;;;;;;;4949452;28;20027;-63
2023/08/10 13:50:36;;;;;;;16.95;12.13;;;;;;;;;;4949002;28;20027;-65
2023/08/10 13:53:03;;;;;;;18.02;12.25;;;;;;;;;;4943470;29;20035;-64
2023/08/10 13:55:29;;;;;;;18.10;12.77;;;;;;;;;;4950693;28;20470;-64
2023/08/10 13:57:55;;;;;;;17.52;12.75;;;;;;;;;;4944398;28;20035;-61
2023/08/10 14:00:21;;;;;;;20.13;11.98;;;;;;;;;;4948940;28;20035;-64
2023/08/10 14:02:47;;;;;;;16.67;12.10;;;;;;;;;;4950702;29;20491;-64
2023/08/10 14:05:13;;;;;;;16.48;12.40;;;;;;;;;;4607584;28;10000134;-65
2023/08/10 14:07:40;;;;;;;18.02;12.45;;;;;;;;;;4998313;28;20033;-65
2023/08/10 14:10:06;;;;;;;17.52;11.63;;;;;;;;;;5049115;28;20029;-65
2023/08/10 14:12:32;;;;;;;17.33;12.23;;;;;;;;;;5049196;28;20388;-63
2023/08/10 14:14:58;;;;;;;18.98;12.13;;;;;;;;;;5048739;28;20404;-61
2023/08/10 14:17:24;;;;;;;16.20;11.55;;;;;;;;;;5049296;28;20106;-65
2023/08/10 14:19:50;;;;;;;16.33;11.90;;;;;;;;;;5012809;28;20023;-65
2023/08/10 14:22:16;;;;;;;17.63;12.05;;;;;;;;;;4948045;28;20503;-64
2023/08/10 14:24:42;;;;;;;16.50;11.90;;;;;;;;;;4949649;28;20027;-65